sensor_id;sensor_type;location;lat;lon;timestamp;P1;durP1;ratioP1;P2;durP2;ratioP2
36009;SDS011;22076;52.182;5.404;2023-04-03T00:01:18;3.78;;;1.60;;
36009;SDS011;22076;52.182;5.404;2023-04-03T00:03:45;6.00;;;1.90;;
36009;SDS011;22076;52.182;5.404;2023-04-03T00:06:11;2.53;;;1.27;;
36009;SDS011;22076;52.182;5.404;2023-04-03T00:08:38;2.50;;;1.08;;
36009;SDS011;22076;52.182;5.404;2023-04-03T00:11:06;3.83;;;1.52;;
36009;SDS011;22076;52.182;5.404;2023-04-03T00:13:32;3.38;;;1.48;;
36009;SDS011;22076;52.182;5.404;2023-04-03T00:15:59;2.35;;;1.17;;
36009;SDS011;22076;52.182;5.404;2023-04-03T00:18:27;4.28;;;2.08;;
36009;SDS011;22076;52.182;5.404;2023-04-03T00:20:54;6.07;;;1.85;;
36009;SDS011;22076;52.182;5.404;2023-04-03T00:23:20;2.17;;;1.30;;
36009;SDS011;22076;52.182;5.404;2023-04-03T00:25:48;2.42;;;1.30;;
36009;SDS011;22076;52.182;5.404;2023-04-03T00:28:16;3.50;;;1.48;;
36009;SDS011;22076;52.182;5.404;2023-04-03T00:30:42;3.80;;;1.60;;
36009;SDS011;22076;52.182;5.404;2023-04-03T00:33:09;3.40;;;1.80;;
36009;SDS011;22076;52.182;5.404;2023-04-03T00:35:38;4.43;;;1.75;;
36009;SDS011;22076;52.182;5.404;2023-04-03T00:38:05;1.65;;;1.48;;
36009;SDS011;22076;52.182;5.404;2023-04-03T00:40:33;2.72;;;1.40;;
36009;SDS011;22076;52.182;5.404;2023-04-03T00:43:01;4.30;;;1.95;;
36009;SDS011;22076;52.182;5.404;2023-04-03T00:45:32;3.95;;;1.55;;
36009;SDS011;22076;52.182;5.404;2023-04-03T00:48:01;2.05;;;1.40;;
36009;SDS011;22076;52.182;5.404;2023-04-03T00:50:30;4.95;;;1.70;;
36009;SDS011;22076;52.182;5.404;2023-04-03T00:53:01;3.95;;;1.80;;
36009;SDS011;22076;52.182;5.404;2023-04-03T00:55:28;2.65;;;1.50;;
36009;SDS011;22076;52.182;5.404;2023-04-03T00:57:55;2.63;;;1.45;;
36009;SDS011;22076;52.182;5.404;2023-04-03T01:00:23;2.40;;;1.48;;
36009;SDS011;22076;52.182;5.404;2023-04-03T01:02:50;2.85;;;1.38;;
36009;SDS011;22076;52.182;5.404;2023-04-03T01:05:17;3.40;;;1.85;;
36009;SDS011;22076;52.182;5.404;2023-04-03T01:07:45;3.78;;;1.80;;
36009;SDS011;22076;52.182;5.404;2023-04-03T01:10:14;8.48;;;1.92;;
36009;SDS011;22076;52.182;5.404;2023-04-03T01:12:43;4.47;;;2.17;;
36009;SDS011;22076;52.182;5.404;2023-04-03T01:15:11;2.65;;;1.27;;
36009;SDS011;22076;52.182;5.404;2023-04-03T01:17:39;8.05;;;2.00;;
36009;SDS011;22076;52.182;5.404;2023-04-03T01:20:20;3.90;;;1.75;;
36009;SDS011;22076;52.182;5.404;2023-04-03T01:23:06;2.97;;;1.65;;
36009;SDS011;22076;52.182;5.404;2023-04-03T01:25:44;2.20;;;1.42;;
36009;SDS011;22076;52.182;5.404;2023-04-03T01:28:13;4.63;;;1.70;;
36009;SDS011;22076;52.182;5.404;2023-04-03T01:30:43;5.25;;;1.80;;
36009;SDS011;22076;52.182;5.404;2023-04-03T01:33:15;3.15;;;1.60;;
36009;SDS011;22076;52.182;5.404;2023-04-03T01:35:41;3.92;;;1.88;;
36009;SDS011;22076;52.182;5.404;2023-04-03T01:38:08;4.18;;;1.90;;
36009;SDS011;22076;52.182;5.404;2023-04-03T01:40:35;5.80;;;1.88;;
36009;SDS011;22076;52.182;5.404;2023-04-03T01:43:02;8.15;;;1.92;;
36009;SDS011;22076;52.182;5.404;2023-04-03T01:45:29;3.63;;;1.90;;
36009;SDS011;22076;52.182;5.404;2023-04-03T01:47:56;3.70;;;1.58;;
36009;SDS011;22076;52.182;5.404;2023-04-03T01:50:24;1.75;;;1.13;;
36009;SDS011;22076;52.182;5.404;2023-04-03T01:52:50;5.35;;;1.83;;
36009;SDS011;22076;52.182;5.404;2023-04-03T01:55:20;4.22;;;1.90;;
36009;SDS011;22076;52.182;5.404;2023-04-03T01:57:47;3.47;;;1.95;;
36009;SDS011;22076;52.182;5.404;2023-04-03T02:00:15;2.95;;;1.55;;
36009;SDS011;22076;52.182;5.404;2023-04-03T02:02:42;3.78;;;1.77;;
36009;SDS011;22076;52.182;5.404;2023-04-03T02:05:09;5.03;;;1.90;;
36009;SDS011;22076;52.182;5.404;2023-04-03T02:07:37;6.75;;;2.42;;
36009;SDS011;22076;52.182;5.404;2023-04-03T02:10:04;3.55;;;1.52;;
36009;SDS011;22076;52.182;5.404;2023-04-03T02:12:31;5.47;;;2.25;;
36009;SDS011;22076;52.182;5.404;2023-04-03T02:14:57;3.60;;;2.00;;
36009;SDS011;22076;52.182;5.404;2023-04-03T02:17:24;5.00;;;1.50;;
36009;SDS011;22076;52.182;5.404;2023-04-03T02:19:51;5.70;;;2.30;;
36009;SDS011;22076;52.182;5.404;2023-04-03T02:22:17;4.35;;;1.98;;
36009;SDS011;22076;52.182;5.404;2023-04-03T02:24:46;4.80;;;1.60;;
36009;SDS011;22076;52.182;5.404;2023-04-03T02:27:13;3.50;;;1.85;;
36009;SDS011;22076;52.182;5.404;2023-04-03T02:29:39;7.15;;;2.05;;
36009;SDS011;22076;52.182;5.404;2023-04-03T02:32:06;4.47;;;1.70;;
36009;SDS011;22076;52.182;5.404;2023-04-03T02:34:32;4.85;;;1.83;;
36009;SDS011;22076;52.182;5.404;2023-04-03T02:36:59;4.93;;;2.00;;
36009;SDS011;22076;52.182;5.404;2023-04-03T02:39:26;7.13;;;2.53;;
36009;SDS011;22076;52.182;5.404;2023-04-03T02:41:54;6.38;;;2.17;;
36009;SDS011;22076;52.182;5.404;2023-04-03T02:44:23;4.72;;;1.80;;
36009;SDS011;22076;52.182;5.404;2023-04-03T02:46:49;5.80;;;1.75;;
36009;SDS011;22076;52.182;5.404;2023-04-03T02:49:16;3.35;;;1.67;;
36009;SDS011;22076;52.182;5.404;2023-04-03T02:51:43;3.85;;;1.92;;
36009;SDS011;22076;52.182;5.404;2023-04-03T02:54:10;7.68;;;2.20;;
36009;SDS011;22076;52.182;5.404;2023-04-03T02:56:37;7.90;;;1.88;;
36009;SDS011;22076;52.182;5.404;2023-04-03T02:59:05;7.50;;;2.50;;
36009;SDS011;22076;52.182;5.404;2023-04-03T03:01:32;2.75;;;1.55;;
36009;SDS011;22076;52.182;5.404;2023-04-03T03:03:58;4.18;;;1.73;;
36009;SDS011;22076;52.182;5.404;2023-04-03T03:06:25;7.78;;;2.30;;
36009;SDS011;22076;52.182;5.404;2023-04-03T03:08:52;4.55;;;2.08;;
36009;SDS011;22076;52.182;5.404;2023-04-03T03:11:19;5.03;;;2.50;;
36009;SDS011;22076;52.182;5.404;2023-04-03T03:13:48;5.63;;;2.28;;
36009;SDS011;22076;52.182;5.404;2023-04-03T03:16:16;4.10;;;2.28;;
36009;SDS011;22076;52.182;5.404;2023-04-03T03:18:43;7.13;;;1.98;;
36009;SDS011;22076;52.182;5.404;2023-04-03T03:21:09;5.82;;;1.85;;
36009;SDS011;22076;52.182;5.404;2023-04-03T03:23:36;5.63;;;2.00;;
36009;SDS011;22076;52.182;5.404;2023-04-03T03:26:04;6.80;;;2.38;;
36009;SDS011;22076;52.182;5.404;2023-04-03T03:28:31;3.88;;;2.08;;
36009;SDS011;22076;52.182;5.404;2023-04-03T03:30:58;6.50;;;2.10;;
36009;SDS011;22076;52.182;5.404;2023-04-03T03:33:27;6.35;;;1.98;;
36009;SDS011;22076;52.182;5.404;2023-04-03T03:35:54;3.92;;;2.20;;
36009;SDS011;22076;52.182;5.404;2023-04-03T03:38:21;5.15;;;2.03;;
36009;SDS011;22076;52.182;5.404;2023-04-03T03:40:48;4.20;;;2.20;;
36009;SDS011;22076;52.182;5.404;2023-04-03T03:43:15;6.88;;;2.22;;
36009;SDS011;22076;52.182;5.404;2023-04-03T03:45:42;3.97;;;1.90;;
36009;SDS011;22076;52.182;5.404;2023-04-03T03:48:09;6.90;;;2.08;;
36009;SDS011;22076;52.182;5.404;2023-04-03T03:50:37;4.68;;;2.10;;
36009;SDS011;22076;52.182;5.404;2023-04-03T03:53:04;6.60;;;2.58;;
36009;SDS011;22076;52.182;5.404;2023-04-03T03:55:31;6.97;;;2.30;;
36009;SDS011;22076;52.182;5.404;2023-04-03T03:57:57;6.10;;;2.78;;
36009;SDS011;22076;52.182;5.404;2023-04-03T04:00:25;2.97;;;1.52;;
36009;SDS011;22076;52.182;5.404;2023-04-03T04:02:51;5.78;;;2.20;;
36009;SDS011;22076;52.182;5.404;2023-04-03T04:05:18;4.43;;;2.22;;
36009;SDS011;22076;52.182;5.404;2023-04-03T04:07:46;6.15;;;2.00;;
36009;SDS011;22076;52.182;5.404;2023-04-03T04:10:13;9.75;;;2.85;;
36009;SDS011;22076;52.182;5.404;2023-04-03T04:12:40;4.05;;;2.13;;
36009;SDS011;22076;52.182;5.404;2023-04-03T04:15:08;6.90;;;2.70;;
36009;SDS011;22076;52.182;5.404;2023-04-03T04:17:37;4.82;;;2.10;;
36009;SDS011;22076;52.182;5.404;2023-04-03T04:20:04;4.07;;;2.45;;
36009;SDS011;22076;52.182;5.404;2023-04-03T04:22:31;7.40;;;2.83;;
36009;SDS011;22076;52.182;5.404;2023-04-03T04:24:59;5.18;;;2.28;;
36009;SDS011;22076;52.182;5.404;2023-04-03T04:27:25;3.13;;;1.98;;
36009;SDS011;22076;52.182;5.404;2023-04-03T04:29:52;14.45;;;3.08;;
36009;SDS011;22076;52.182;5.404;2023-04-03T04:32:19;6.90;;;2.00;;
36009;SDS011;22076;52.182;5.404;2023-04-03T04:34:45;6.57;;;2.08;;
36009;SDS011;22076;52.182;5.404;2023-04-03T04:37:12;8.13;;;2.45;;
36009;SDS011;22076;52.182;5.404;2023-04-03T04:39:39;3.50;;;1.60;;
36009;SDS011;22076;52.182;5.404;2023-04-03T04:42:07;4.60;;;1.48;;
36009;SDS011;22076;52.182;5.404;2023-04-03T04:44:37;4.27;;;2.30;;
36009;SDS011;22076;52.182;5.404;2023-04-03T04:47:04;8.73;;;2.83;;
36009;SDS011;22076;52.182;5.404;2023-04-03T04:49:31;9.27;;;2.00;;
36009;SDS011;22076;52.182;5.404;2023-04-03T04:51:57;8.02;;;2.60;;
36009;SDS011;22076;52.182;5.404;2023-04-03T04:54:24;6.47;;;1.90;;
36009;SDS011;22076;52.182;5.404;2023-04-03T04:56:51;9.70;;;2.72;;
36009;SDS011;22076;52.182;5.404;2023-04-03T04:59:19;11.40;;;2.70;;
36009;SDS011;22076;52.182;5.404;2023-04-03T05:01:45;8.95;;;3.05;;
36009;SDS011;22076;52.182;5.404;2023-04-03T05:04:12;6.63;;;2.33;;
36009;SDS011;22076;52.182;5.404;2023-04-03T05:06:38;6.15;;;2.28;;
36009;SDS011;22076;52.182;5.404;2023-04-03T05:09:05;5.13;;;1.85;;
36009;SDS011;22076;52.182;5.404;2023-04-03T05:11:32;5.40;;;2.00;;
36009;SDS011;22076;52.182;5.404;2023-04-03T05:13:58;5.20;;;2.22;;
36009;SDS011;22076;52.182;5.404;2023-04-03T05:16:26;8.30;;;2.78;;
36009;SDS011;22076;52.182;5.404;2023-04-03T05:18:53;7.75;;;2.50;;
36009;SDS011;22076;52.182;5.404;2023-04-03T05:21:19;7.63;;;2.33;;
36009;SDS011;22076;52.182;5.404;2023-04-03T05:23:48;6.13;;;2.35;;
36009;SDS011;22076;52.182;5.404;2023-04-03T05:26:15;4.43;;;2.20;;
36009;SDS011;22076;52.182;5.404;2023-04-03T05:28:41;8.98;;;3.17;;
36009;SDS011;22076;52.182;5.404;2023-04-03T05:31:08;8.85;;;2.75;;
36009;SDS011;22076;52.182;5.404;2023-04-03T05:33:36;3.30;;;1.95;;
36009;SDS011;22076;52.182;5.404;2023-04-03T05:36:03;8.63;;;2.97;;
36009;SDS011;22076;52.182;5.404;2023-04-03T05:38:31;10.98;;;2.83;;
36009;SDS011;22076;52.182;5.404;2023-04-03T05:40:59;6.68;;;2.53;;
36009;SDS011;22076;52.182;5.404;2023-04-03T05:43:26;5.72;;;2.58;;
36009;SDS011;22076;52.182;5.404;2023-04-03T05:45:58;4.00;;;1.90;;
36009;SDS011;22076;52.182;5.404;2023-04-03T05:48:25;8.77;;;2.80;;
36009;SDS011;22076;52.182;5.404;2023-04-03T05:50:53;4.07;;;2.30;;
36009;SDS011;22076;52.182;5.404;2023-04-03T05:53:21;6.72;;;2.40;;
36009;SDS011;22076;52.182;5.404;2023-04-03T05:55:48;4.90;;;1.90;;
36009;SDS011;22076;52.182;5.404;2023-04-03T05:58:15;8.52;;;2.58;;
36009;SDS011;22076;52.182;5.404;2023-04-03T06:00:41;4.47;;;1.75;;
36009;SDS011;22076;52.182;5.404;2023-04-03T06:03:15;8.45;;;2.00;;
36009;SDS011;22076;52.182;5.404;2023-04-03T06:05:42;4.35;;;2.40;;
36009;SDS011;22076;52.182;5.404;2023-04-03T06:08:11;7.90;;;2.30;;
36009;SDS011;22076;52.182;5.404;2023-04-03T06:10:40;5.75;;;2.10;;
36009;SDS011;22076;52.182;5.404;2023-04-03T06:13:08;11.35;;;3.03;;
36009;SDS011;22076;52.182;5.404;2023-04-03T06:15:35;3.50;;;2.03;;
36009;SDS011;22076;52.182;5.404;2023-04-03T06:18:01;5.45;;;1.92;;
36009;SDS011;22076;52.182;5.404;2023-04-03T06:20:28;5.50;;;2.67;;
36009;SDS011;22076;52.182;5.404;2023-04-03T06:22:56;5.93;;;2.10;;
36009;SDS011;22076;52.182;5.404;2023-04-03T06:25:24;8.48;;;2.72;;
36009;SDS011;22076;52.182;5.404;2023-04-03T06:27:51;9.80;;;2.30;;
36009;SDS011;22076;52.182;5.404;2023-04-03T06:30:20;8.70;;;2.90;;
36009;SDS011;22076;52.182;5.404;2023-04-03T06:32:47;5.85;;;2.30;;
36009;SDS011;22076;52.182;5.404;2023-04-03T06:35:13;5.38;;;2.42;;
36009;SDS011;22076;52.182;5.404;2023-04-03T06:37:41;9.45;;;3.10;;
36009;SDS011;22076;52.182;5.404;2023-04-03T06:40:09;6.25;;;2.25;;
36009;SDS011;22076;52.182;5.404;2023-04-03T06:42:42;5.60;;;2.25;;
36009;SDS011;22076;52.182;5.404;2023-04-03T06:45:09;8.00;;;2.17;;
36009;SDS011;22076;52.182;5.404;2023-04-03T06:47:37;6.72;;;2.45;;
36009;SDS011;22076;52.182;5.404;2023-04-03T06:50:04;10.23;;;3.10;;
36009;SDS011;22076;52.182;5.404;2023-04-03T06:52:32;7.75;;;2.53;;
36009;SDS011;22076;52.182;5.404;2023-04-03T06:54:58;7.47;;;2.67;;
36009;SDS011;22076;52.182;5.404;2023-04-03T06:57:25;7.65;;;2.50;;
36009;SDS011;22076;52.182;5.404;2023-04-03T06:59:53;7.70;;;3.35;;
36009;SDS011;22076;52.182;5.404;2023-04-03T07:02:21;10.13;;;3.08;;
36009;SDS011;22076;52.182;5.404;2023-04-03T07:04:48;13.73;;;6.85;;
36009;SDS011;22076;52.182;5.404;2023-04-03T07:07:15;9.73;;;2.83;;
36009;SDS011;22076;52.182;5.404;2023-04-03T07:09:43;6.05;;;2.53;;
36009;SDS011;22076;52.182;5.404;2023-04-03T07:12:09;10.25;;;2.95;;
36009;SDS011;22076;52.182;5.404;2023-04-03T07:14:38;6.03;;;2.58;;
36009;SDS011;22076;52.182;5.404;2023-04-03T07:17:06;8.23;;;2.55;;
36009;SDS011;22076;52.182;5.404;2023-04-03T07:19:33;8.25;;;2.63;;
36009;SDS011;22076;52.182;5.404;2023-04-03T07:21:59;5.57;;;1.95;;
36009;SDS011;22076;52.182;5.404;2023-04-03T07:24:26;7.07;;;2.78;;
36009;SDS011;22076;52.182;5.404;2023-04-03T07:26:52;6.50;;;2.45;;
36009;SDS011;22076;52.182;5.404;2023-04-03T07:29:19;9.73;;;2.83;;
36009;SDS011;22076;52.182;5.404;2023-04-03T07:31:46;6.25;;;2.47;;
36009;SDS011;22076;52.182;5.404;2023-04-03T07:34:14;4.03;;;2.17;;
36009;SDS011;22076;52.182;5.404;2023-04-03T07:36:41;6.78;;;2.08;;
36009;SDS011;22076;52.182;5.404;2023-04-03T07:39:07;5.05;;;2.47;;
36009;SDS011;22076;52.182;5.404;2023-04-03T07:41:34;6.03;;;2.40;;
36009;SDS011;22076;52.182;5.404;2023-04-03T07:44:01;8.07;;;2.50;;
36009;SDS011;22076;52.182;5.404;2023-04-03T07:46:28;7.78;;;1.95;;
36009;SDS011;22076;52.182;5.404;2023-04-03T07:48:54;9.73;;;2.42;;
36009;SDS011;22076;52.182;5.404;2023-04-03T07:51:22;5.50;;;2.67;;
36009;SDS011;22076;52.182;5.404;2023-04-03T07:53:49;8.13;;;2.72;;
36009;SDS011;22076;52.182;5.404;2023-04-03T07:56:16;7.13;;;1.80;;
36009;SDS011;22076;52.182;5.404;2023-04-03T07:58:43;10.52;;;2.00;;
36009;SDS011;22076;52.182;5.404;2023-04-03T08:01:10;5.53;;;1.98;;
36009;SDS011;22076;52.182;5.404;2023-04-03T08:03:37;5.90;;;2.03;;
36009;SDS011;22076;52.182;5.404;2023-04-03T08:06:05;5.65;;;1.85;;
36009;SDS011;22076;52.182;5.404;2023-04-03T08:08:34;8.68;;;2.47;;
36009;SDS011;22076;52.182;5.404;2023-04-03T08:11:01;5.00;;;2.30;;
36009;SDS011;22076;52.182;5.404;2023-04-03T08:13:30;5.85;;;2.75;;
36009;SDS011;22076;52.182;5.404;2023-04-03T08:16:06;3.17;;;1.60;;
36009;SDS011;22076;52.182;5.404;2023-04-03T08:18:36;4.93;;;2.33;;
36009;SDS011;22076;52.182;5.404;2023-04-03T08:21:05;7.80;;;2.08;;
36009;SDS011;22076;52.182;5.404;2023-04-03T08:23:33;4.60;;;1.77;;
36009;SDS011;22076;52.182;5.404;2023-04-03T08:26:05;10.00;;;2.20;;
36009;SDS011;22076;52.182;5.404;2023-04-03T08:28:33;2.92;;;1.73;;
36009;SDS011;22076;52.182;5.404;2023-04-03T08:31:02;6.47;;;2.03;;
36009;SDS011;22076;52.182;5.404;2023-04-03T08:33:30;3.60;;;1.77;;
36009;SDS011;22076;52.182;5.404;2023-04-03T08:35:57;3.78;;;1.60;;
36009;SDS011;22076;52.182;5.404;2023-04-03T08:38:24;3.80;;;1.50;;
36009;SDS011;22076;52.182;5.404;2023-04-03T08:41:00;9.18;;;2.42;;
36009;SDS011;22076;52.182;5.404;2023-04-03T08:43:31;8.15;;;1.92;;
36009;SDS011;22076;52.182;5.404;2023-04-03T08:46:02;3.80;;;1.70;;
36009;SDS011;22076;52.182;5.404;2023-04-03T08:48:32;4.82;;;1.10;;
36009;SDS011;22076;52.182;5.404;2023-04-03T08:51:03;6.30;;;2.00;;
36009;SDS011;22076;52.182;5.404;2023-04-03T08:53:32;5.28;;;1.42;;
36009;SDS011;22076;52.182;5.404;2023-04-03T08:56:02;4.82;;;1.80;;
36009;SDS011;22076;52.182;5.404;2023-04-03T08:58:33;4.35;;;1.70;;
36009;SDS011;22076;52.182;5.404;2023-04-03T09:01:05;2.50;;;1.20;;
36009;SDS011;22076;52.182;5.404;2023-04-03T09:03:34;3.58;;;1.10;;
36009;SDS011;22076;52.182;5.404;2023-04-03T09:06:04;4.35;;;1.42;;
36009;SDS011;22076;52.182;5.404;2023-04-03T09:08:32;2.78;;;1.30;;
36009;SDS011;22076;52.182;5.404;2023-04-03T09:11:09;2.80;;;0.80;;
36009;SDS011;22076;52.182;5.404;2023-04-03T09:13:41;3.17;;;1.23;;
36009;SDS011;22076;52.182;5.404;2023-04-03T09:16:16;1.73;;;1.10;;
36009;SDS011;22076;52.182;5.404;2023-04-03T09:18:48;2.03;;;1.20;;
36009;SDS011;22076;52.182;5.404;2023-04-03T09:21:20;4.45;;;1.00;;
36009;SDS011;22076;52.182;5.404;2023-04-03T09:23:51;2.88;;;0.80;;
36009;SDS011;22076;52.182;5.404;2023-04-03T09:26:21;2.58;;;1.00;;
36009;SDS011;22076;52.182;5.404;2023-04-03T09:28:51;1.48;;;0.80;;
36009;SDS011;22076;52.182;5.404;2023-04-03T09:31:21;2.03;;;0.95;;
36009;SDS011;22076;52.182;5.404;2023-04-03T09:33:50;1.48;;;0.95;;
36009;SDS011;22076;52.182;5.404;2023-04-03T09:39:08;1.20;;;0.68;;
36009;SDS011;22076;52.182;5.404;2023-04-03T09:41:38;1.40;;;0.65;;
36009;SDS011;22076;52.182;5.404;2023-04-03T09:44:17;1.42;;;0.63;;
36009;SDS011;22076;52.182;5.404;2023-04-03T09:46:47;2.25;;;0.85;;
36009;SDS011;22076;52.182;5.404;2023-04-03T09:49:13;1.02;;;0.63;;
36009;SDS011;22076;52.182;5.404;2023-04-03T09:51:40;3.47;;;0.93;;
36009;SDS011;22076;52.182;5.404;2023-04-03T09:56:53;2.63;;;0.80;;
36009;SDS011;22076;52.182;5.404;2023-04-03T09:59:20;1.75;;;0.57;;
36009;SDS011;22076;52.182;5.404;2023-04-03T10:01:59;4.18;;;0.82;;
36009;SDS011;22076;52.182;5.404;2023-04-03T10:04:28;1.15;;;0.80;;
36009;SDS011;22076;52.182;5.404;2023-04-03T10:07:03;1.90;;;0.60;;
36009;SDS011;22076;52.182;5.404;2023-04-03T10:09:32;1.92;;;0.73;;
36009;SDS011;22076;52.182;5.404;2023-04-03T10:12:01;1.70;;;0.70;;
36009;SDS011;22076;52.182;5.404;2023-04-03T10:14:30;3.10;;;0.95;;
36009;SDS011;22076;52.182;5.404;2023-04-03T10:17:06;1.90;;;0.70;;
36009;SDS011;22076;52.182;5.404;2023-04-03T10:19:41;3.10;;;0.80;;
36009;SDS011;22076;52.182;5.404;2023-04-03T10:22:16;1.05;;;0.63;;
36009;SDS011;22076;52.182;5.404;2023-04-03T10:24:48;2.47;;;0.70;;
36009;SDS011;22076;52.182;5.404;2023-04-03T10:27:22;3.30;;;0.75;;
36009;SDS011;22076;52.182;5.404;2023-04-03T10:29:57;2.28;;;0.60;;
36009;SDS011;22076;52.182;5.404;2023-04-03T10:35:08;1.13;;;0.63;;
36009;SDS011;22076;52.182;5.404;2023-04-03T10:37:42;1.77;;;0.70;;
36009;SDS011;22076;52.182;5.404;2023-04-03T10:40:21;1.52;;;0.50;;
36009;SDS011;22076;52.182;5.404;2023-04-03T10:42:53;2.13;;;0.60;;
36009;SDS011;22076;52.182;5.404;2023-04-03T10:45:25;1.65;;;0.68;;
36009;SDS011;22076;52.182;5.404;2023-04-03T10:48:09;2.63;;;0.75;;
36009;SDS011;22076;52.182;5.404;2023-04-03T10:50:40;3.45;;;0.70;;
36009;SDS011;22076;52.182;5.404;2023-04-03T10:53:13;1.55;;;0.70;;
36009;SDS011;22076;52.182;5.404;2023-04-03T10:55:48;2.25;;;0.60;;
36009;SDS011;22076;52.182;5.404;2023-04-03T11:00:51;1.70;;;1.00;;
36009;SDS011;22076;52.182;5.404;2023-04-03T11:03:23;2.08;;;0.60;;
36009;SDS011;22076;52.182;5.404;2023-04-03T11:05:53;4.07;;;1.08;;
36009;SDS011;22076;52.182;5.404;2023-04-03T11:08:28;1.98;;;0.75;;
36009;SDS011;22076;52.182;5.404;2023-04-03T11:11:00;4.93;;;1.63;;
36009;SDS011;22076;52.182;5.404;2023-04-03T11:13:32;1.55;;;0.68;;
36009;SDS011;22076;52.182;5.404;2023-04-03T11:16:12;2.83;;;0.73;;
36009;SDS011;22076;52.182;5.404;2023-04-03T11:18:47;2.53;;;0.82;;
36009;SDS011;22076;52.182;5.404;2023-04-03T11:21:17;2.13;;;0.98;;
36009;SDS011;22076;52.182;5.404;2023-04-03T11:23:46;2.08;;;0.90;;
36009;SDS011;22076;52.182;5.404;2023-04-03T11:26:15;4.20;;;1.05;;
36009;SDS011;22076;52.182;5.404;2023-04-03T11:28:45;2.20;;;0.85;;
36009;SDS011;22076;52.182;5.404;2023-04-03T11:31:19;4.97;;;1.02;;
36009;SDS011;22076;52.182;5.404;2023-04-03T11:33:56;1.45;;;0.90;;
36009;SDS011;22076;52.182;5.404;2023-04-03T11:36:30;2.58;;;0.98;;
36009;SDS011;22076;52.182;5.404;2023-04-03T11:38:59;1.80;;;0.98;;
36009;SDS011;22076;52.182;5.404;2023-04-03T11:41:28;1.42;;;0.80;;
36009;SDS011;22076;52.182;5.404;2023-04-03T11:43:58;2.45;;;0.75;;
36009;SDS011;22076;52.182;5.404;2023-04-03T11:58:12;1.48;;;0.73;;
36009;SDS011;22076;52.182;5.404;2023-04-03T12:00:59;2.00;;;0.93;;
36009;SDS011;22076;52.182;5.404;2023-04-03T12:12:42;3.63;;;0.95;;
36009;SDS011;22076;52.182;5.404;2023-04-03T12:18:37;2.90;;;1.08;;
36009;SDS011;22076;52.182;5.404;2023-04-03T12:21:07;3.58;;;1.00;;
36009;SDS011;22076;52.182;5.404;2023-04-03T12:23:34;1.88;;;0.90;;
36009;SDS011;22076;52.182;5.404;2023-04-03T12:26:05;1.77;;;1.00;;
36009;SDS011;22076;52.182;5.404;2023-04-03T12:28:46;0.95;;;0.70;;
36009;SDS011;22076;52.182;5.404;2023-04-03T12:31:14;1.77;;;0.98;;
36009;SDS011;22076;52.182;5.404;2023-04-03T12:33:50;2.58;;;0.95;;
36009;SDS011;22076;52.182;5.404;2023-04-03T12:36:26;3.33;;;0.88;;
36009;SDS011;22076;52.182;5.404;2023-04-03T12:39:09;1.67;;;0.75;;
36009;SDS011;22076;52.182;5.404;2023-04-03T12:41:46;4.80;;;1.20;;
36009;SDS011;22076;52.182;5.404;2023-04-03T12:44:22;2.88;;;0.93;;
36009;SDS011;22076;52.182;5.404;2023-04-03T12:46:58;2.13;;;0.90;;
36009;SDS011;22076;52.182;5.404;2023-04-03T12:49:35;3.75;;;1.80;;
36009;SDS011;22076;52.182;5.404;2023-04-03T12:52:04;3.55;;;0.85;;
36009;SDS011;22076;52.182;5.404;2023-04-03T12:54:32;2.47;;;0.93;;
36009;SDS011;22076;52.182;5.404;2023-04-03T12:57:11;2.50;;;0.95;;
36009;SDS011;22076;52.182;5.404;2023-04-03T12:59:38;3.20;;;1.02;;
36009;SDS011;22076;52.182;5.404;2023-04-03T13:02:10;2.85;;;1.20;;
36009;SDS011;22076;52.182;5.404;2023-04-03T13:04:47;1.90;;;1.00;;
36009;SDS011;22076;52.182;5.404;2023-04-03T13:07:23;6.20;;;2.03;;
36009;SDS011;22076;52.182;5.404;2023-04-03T13:09:56;4.38;;;1.33;;
36009;SDS011;22076;52.182;5.404;2023-04-03T13:12:24;2.35;;;1.20;;
36009;SDS011;22076;52.182;5.404;2023-04-03T13:14:51;3.45;;;1.23;;
36009;SDS011;22076;52.182;5.404;2023-04-03T13:17:19;1.80;;;1.00;;
36009;SDS011;22076;52.182;5.404;2023-04-03T13:19:47;1.52;;;1.30;;
36009;SDS011;22076;52.182;5.404;2023-04-03T13:22:19;3.03;;;1.10;;
36009;SDS011;22076;52.182;5.404;2023-04-03T13:24:51;3.13;;;1.10;;
36009;SDS011;22076;52.182;5.404;2023-04-03T13:27:19;1.80;;;1.05;;
36009;SDS011;22076;52.182;5.404;2023-04-03T13:29:48;3.47;;;1.40;;
36009;SDS011;22076;52.182;5.404;2023-04-03T13:32:18;2.60;;;1.02;;
36009;SDS011;22076;52.182;5.404;2023-04-03T13:34:48;2.15;;;0.88;;
36009;SDS011;22076;52.182;5.404;2023-04-03T13:37:22;3.25;;;1.10;;
36009;SDS011;22076;52.182;5.404;2023-04-03T13:39:57;3.10;;;1.42;;
36009;SDS011;22076;52.182;5.404;2023-04-03T13:42:26;3.53;;;1.10;;
36009;SDS011;22076;52.182;5.404;2023-04-03T13:45:11;2.67;;;1.23;;
36009;SDS011;22076;52.182;5.404;2023-04-03T13:47:46;2.33;;;1.23;;
36009;SDS011;22076;52.182;5.404;2023-04-03T13:50:19;3.03;;;1.00;;
36009;SDS011;22076;52.182;5.404;2023-04-03T13:52:48;3.55;;;1.38;;
36009;SDS011;22076;52.182;5.404;2023-04-03T13:55:17;2.72;;;1.38;;
36009;SDS011;22076;52.182;5.404;2023-04-03T13:57:53;3.95;;;1.30;;
36009;SDS011;22076;52.182;5.404;2023-04-03T14:00:28;3.33;;;1.20;;
36009;SDS011;22076;52.182;5.404;2023-04-03T14:03:00;3.40;;;1.27;;
36009;SDS011;22076;52.182;5.404;2023-04-03T14:05:30;2.72;;;1.10;;
36009;SDS011;22076;52.182;5.404;2023-04-03T14:07:57;1.77;;;1.30;;
36009;SDS011;22076;52.182;5.404;2023-04-03T14:10:24;3.97;;;1.30;;
36009;SDS011;22076;52.182;5.404;2023-04-03T14:12:50;2.25;;;1.40;;
36009;SDS011;22076;52.182;5.404;2023-04-03T14:15:18;3.20;;;1.35;;
36009;SDS011;22076;52.182;5.404;2023-04-03T14:17:48;2.58;;;1.08;;
36009;SDS011;22076;52.182;5.404;2023-04-03T14:20:17;2.78;;;1.30;;
36009;SDS011;22076;52.182;5.404;2023-04-03T14:22:47;3.25;;;1.25;;
36009;SDS011;22076;52.182;5.404;2023-04-03T14:25:14;4.95;;;1.52;;
36009;SDS011;22076;52.182;5.404;2023-04-03T14:27:42;1.77;;;1.10;;
36009;SDS011;22076;52.182;5.404;2023-04-03T14:30:12;4.25;;;1.40;;
36009;SDS011;22076;52.182;5.404;2023-04-03T14:32:41;3.00;;;1.30;;
36009;SDS011;22076;52.182;5.404;2023-04-03T14:35:10;2.63;;;1.45;;
36009;SDS011;22076;52.182;5.404;2023-04-03T14:37:37;2.08;;;1.30;;
36009;SDS011;22076;52.182;5.404;2023-04-03T14:40:06;4.28;;;1.70;;
36009;SDS011;22076;52.182;5.404;2023-04-03T14:42:35;3.08;;;1.50;;
36009;SDS011;22076;52.182;5.404;2023-04-03T14:45:03;3.75;;;1.42;;
36009;SDS011;22076;52.182;5.404;2023-04-03T14:47:31;4.38;;;1.35;;
36009;SDS011;22076;52.182;5.404;2023-04-03T14:49:58;2.45;;;1.38;;
36009;SDS011;22076;52.182;5.404;2023-04-03T14:52:26;4.22;;;1.75;;
36009;SDS011;22076;52.182;5.404;2023-04-03T14:55:03;3.78;;;1.48;;
36009;SDS011;22076;52.182;5.404;2023-04-03T14:57:33;3.13;;;1.60;;
36009;SDS011;22076;52.182;5.404;2023-04-03T15:00:02;3.75;;;1.70;;
36009;SDS011;22076;52.182;5.404;2023-04-03T15:02:30;2.15;;;1.38;;
36009;SDS011;22076;52.182;5.404;2023-04-03T15:05:01;3.25;;;1.42;;
36009;SDS011;22076;52.182;5.404;2023-04-03T15:07:31;4.18;;;1.70;;
36009;SDS011;22076;52.182;5.404;2023-04-03T15:10:00;5.03;;;1.90;;
36009;SDS011;22076;52.182;5.404;2023-04-03T15:12:29;3.72;;;1.50;;
36009;SDS011;22076;52.182;5.404;2023-04-03T15:14:57;2.35;;;1.20;;
36009;SDS011;22076;52.182;5.404;2023-04-03T15:17:24;2.90;;;1.45;;
36009;SDS011;22076;52.182;5.404;2023-04-03T15:19:50;5.18;;;1.88;;
36009;SDS011;22076;52.182;5.404;2023-04-03T15:22:20;4.22;;;1.63;;
36009;SDS011;22076;52.182;5.404;2023-04-03T15:24:48;4.07;;;1.88;;
36009;SDS011;22076;52.182;5.404;2023-04-03T15:27:14;4.50;;;1.63;;
36009;SDS011;22076;52.182;5.404;2023-04-03T15:29:43;5.40;;;1.52;;
36009;SDS011;22076;52.182;5.404;2023-04-03T15:32:10;5.22;;;1.55;;
36009;SDS011;22076;52.182;5.404;2023-04-03T15:34:37;5.55;;;1.55;;